Time;durP1;ratioP1;P1;durP2;ratioP2;P2;SDS_P1;SDS_P2;PMS_P1;PMS_P2;Temp;Humidity;BMP_temperature;BMP_pressure;BME280_temperature;BME280_humidity;BME280_pressure;Samples;Min_cycle;Max_cycle;Signal;HPM_P1;HPM_P2
2021/08/02 00:00:51;;;;;;;9.73;5.97;;;12.90;99.90;;;;;;4198828;28;20043;-86
2021/08/02 00:03:13;;;;;;;18.83;7.60;;;12.90;99.90;;;;;;4198660;28;20028;-87
2021/08/02 00:05:27;;;;;;;9.48;5.60;;;13.00;99.90;;;;;;4195847;28;20134;-86
2021/08/02 00:07:31;;;;;;;12.98;5.80;;;13.00;99.90;;;;;;4198526;28;20181;-86
2021/08/02 00:09:48;;;;;;;14.80;6.53;;;13.00;99.90;;;;;;4199018;28;20036;-86
2021/08/02 00:11:57;;;;;;;13.18;5.72;;;13.00;99.90;;;;;;4195585;28;20029;-87
2021/08/02 00:14:03;;;;;;;9.18;5.70;;;12.90;99.90;;;;;;4197180;28;20064;-86
2021/08/02 00:16:09;;;;;;;10.50;5.65;;;12.90;99.90;;;;;;4199070;28;20112;-86
2021/08/02 00:18:13;;;;;;;13.73;6.22;;;13.00;99.90;;;;;;4200362;28;20052;-86
2021/08/02 00:20:22;;;;;;;11.18;6.25;;;13.00;99.90;;;;;;4198776;28;20032;-87
2021/08/02 00:22:39;;;;;;;10.82;6.30;;;13.00;99.90;;;;;;4197908;28;20036;-86
2021/08/02 00:24:49;;;;;;;12.90;5.50;;;13.00;99.90;;;;;;4173160;28;20044;-85
2021/08/02 00:26:54;;;;;;;14.18;5.95;;;13.00;99.90;;;;;;4196368;28;20062;-86
2021/08/02 00:29:02;;;;;;;11.75;7.25;;;13.00;99.90;;;;;;4179056;28;20033;-87
2021/08/02 00:31:12;;;;;;;13.25;6.38;;;13.00;99.90;;;;;;4178728;28;20021;-87
2021/08/02 00:33:14;;;;;;;8.38;5.68;;;13.00;99.90;;;;;;4178941;28;20095;-87
2021/08/02 00:35:14;;;;;;;12.35;5.82;;;13.00;99.90;;;;;;4196633;28;20033;-87
2021/08/02 00:37:27;;;;;;;10.15;5.65;;;13.00;99.90;;;;;;4180332;28;20051;-86
2021/08/02 00:40:27;;;;;;;12.25;7.97;;;13.00;99.90;;;;;;4178865;28;20034;-86
2021/08/02 00:42:45;;;;;;;18.17;7.28;;;13.00;99.90;;;;;;4113978;28;20495;-86
2021/08/02 00:45:21;;;;;;;19.85;6.45;;;13.10;99.90;;;;;;4175134;28;20036;-84
2021/08/02 00:47:28;;;;;;;11.45;6.70;;;13.10;99.90;;;;;;4183901;28;20033;-85
2021/08/02 00:49:31;;;;;;;12.75;5.38;;;13.00;99.90;;;;;;4204100;28;20056;-87
2021/08/02 00:51:46;;;;;;;10.85;5.43;;;13.00;99.90;;;;;;4180327;28;20106;-85
2021/08/02 00:53:51;;;;;;;7.93;5.18;;;13.00;99.90;;;;;;4181612;28;20117;-87
2021/08/02 00:56:03;;;;;;;14.23;5.50;;;13.00;99.90;;;;;;4195988;28;20115;-86
2021/08/02 00:58:14;;;;;;;8.45;5.63;;;12.90;99.90;;;;;;4166408;28;20025;-87
2021/08/02 01:00:26;;;;;;;8.10;4.57;;;12.90;99.90;;;;;;4195949;28;20037;-87
2021/08/02 01:02:37;;;;;;;8.52;5.00;;;13.00;99.90;;;;;;4196787;28;20072;-86
2021/08/02 01:04:51;;;;;;;9.20;5.10;;;13.00;99.90;;;;;;4196888;28;20189;-86
2021/08/02 01:06:56;;;;;;;12.15;5.43;;;13.10;99.90;;;;;;4180271;28;20033;-87
2021/08/02 01:09:05;;;;;;;9.70;4.57;;;13.10;99.90;;;;;;4173810;28;20034;-85
2021/08/02 01:11:20;;;;;;;9.23;4.95;;;13.20;99.90;;;;;;4177508;28;20029;-84
2021/08/02 01:13:25;;;;;;;7.22;4.25;;;13.20;99.90;;;;;;4180164;28;20124;-86
2021/08/02 01:15:49;;;;;;;9.13;4.72;;;13.20;99.90;;;;;;4182555;28;20032;-86
2021/08/02 01:18:00;;;;;;;13.15;6.55;;;13.10;99.90;;;;;;4180308;28;20104;-85
2021/08/02 01:20:03;;;;;;;8.48;4.13;;;13.20;99.90;;;;;;4180729;28;20037;-86
2021/08/02 01:22:25;;;;;;;;;;;13.20;99.90;;;;;;4177912;28;20026;-86
2021/08/02 01:24:38;;;;;;;10.23;4.60;;;13.20;99.90;;;;;;4191998;28;20030;-85
2021/08/02 01:27:06;;;;;;;6.57;4.60;;;13.20;99.90;;;;;;4188029;28;20507;-87
2021/08/02 01:29:44;;;;;;;8.55;4.53;;;13.20;99.90;;;;;;4196249;28;20050;-84
2021/08/02 01:31:45;;;;;;;7.47;4.18;;;13.20;99.90;;;;;;4194441;28;20486;-85
2021/08/02 01:33:46;;;;;;;12.77;3.90;;;13.20;99.90;;;;;;4196879;28;20075;-85
2021/08/02 01:35:49;;;;;;;6.70;5.13;;;13.20;99.90;;;;;;4192439;28;20472;-85
2021/08/02 01:37:51;;;;;;;6.50;3.83;;;13.20;99.90;;;;;;4197133;28;20104;-86
2021/08/02 01:39:58;;;;;;;10.52;4.57;;;13.30;99.90;;;;;;4196076;28;20077;-86
2021/08/02 01:42:00;;;;;;;7.57;4.40;;;13.30;99.90;;;;;;4194065;28;20035;-87
2021/08/02 01:44:01;;;;;;;9.32;4.97;;;13.40;99.90;;;;;;4199855;28;20051;-86
2021/08/02 01:46:35;;;;;;;9.70;5.78;;;13.30;99.90;;;;;;4192058;28;20037;-85
2021/08/02 01:48:52;;;;;;;;;;;13.40;99.90;;;;;;4205959;28;20468;-87
2021/08/02 01:51:26;;;;;;;10.00;4.53;;;13.50;99.90;;;;;;4195725;28;20439;-86
2021/08/02 01:53:51;;;;;;;10.13;5.38;;;13.40;99.90;;;;;;4205754;28;20020;-87
2021/08/02 01:56:02;;;;;;;9.60;5.35;;;13.50;99.90;;;;;;4212260;28;20024;-86
2021/08/02 01:58:07;;;;;;;11.98;5.05;;;13.40;99.90;;;;;;4194790;28;20044;-86
2021/08/02 02:00:40;;;;;;;13.55;5.63;;;13.40;99.90;;;;;;4196381;28;20024;-85
2021/08/02 02:02:50;;;;;;;7.10;5.07;;;13.40;99.90;;;;;;4192795;28;20487;-85
2021/08/02 02:05:02;;;;;;;11.00;5.32;;;13.40;99.90;;;;;;4198396;28;20046;-85
2021/08/02 02:07:05;;;;;;;9.77;5.30;;;13.40;99.90;;;;;;4196801;28;20037;-86
2021/08/02 02:09:16;;;;;;;9.63;4.65;;;13.40;99.90;;;;;;4197655;28;20568;-86
2021/08/02 02:11:27;;;;;;;8.63;5.07;;;13.40;99.90;;;;;;4194019;28;20039;-86
2021/08/02 02:13:40;;;;;;;11.65;5.07;;;13.40;99.90;;;;;;4192614;28;20046;-86
2021/08/02 02:15:51;;;;;;;10.60;4.47;;;13.50;99.90;;;;;;4187915;28;20029;-86
2021/08/02 02:17:53;;;;;;;4.90;4.40;;;13.50;99.90;;;;;;4194031;28;20028;-85
2021/08/02 02:20:05;;;;;;;6.78;4.45;;;13.50;99.90;;;;;;4196585;28;20035;-85
2021/08/02 02:22:09;;;;;;;8.55;4.97;;;13.60;99.90;;;;;;4211326;28;20028;-84
2021/08/02 02:24:10;;;;;;;9.40;5.57;;;13.60;99.90;;;;;;4188345;28;20089;-84
2021/08/02 02:26:25;;;;;;;8.43;4.45;;;13.60;99.90;;;;;;4194479;28;20024;-85
2021/08/02 02:28:34;;;;;;;12.32;4.90;;;13.60;99.90;;;;;;4191299;28;20056;-85
2021/08/02 02:30:46;;;;;;;6.57;4.45;;;13.60;99.90;;;;;;4185837;28;20028;-84
2021/08/02 02:32:47;;;;;;;11.38;4.10;;;13.50;99.90;;;;;;4196205;28;20036;-85
2021/08/02 02:34:56;;;;;;;11.05;4.10;;;13.60;99.90;;;;;;4195422;28;20028;-84
2021/08/02 02:36:57;;;;;;;6.63;4.32;;;13.50;99.90;;;;;;4193707;28;20116;-85
2021/08/02 02:39:05;;;;;;;7.05;4.32;;;13.50;99.90;;;;;;4196319;28;20024;-84
2021/08/02 02:41:08;;;;;;;4.60;3.63;;;13.50;99.90;;;;;;4196007;28;20487;-84
2021/08/02 02:43:11;;;;;;;7.88;4.22;;;13.60;99.90;;;;;;4194925;28;20029;-83
2021/08/02 02:45:14;;;;;;;9.25;3.90;;;13.60;99.90;;;;;;4193283;28;20095;-84
2021/08/02 02:47:15;;;;;;;;;;;13.60;99.90;;;;;;4195372;28;20873;-84
2021/08/02 02:49:18;;;;;;;5.47;3.92;;;13.60;99.90;;;;;;4195711;28;19935;-83
2021/08/02 02:51:21;;;;;;;10.57;4.15;;;13.50;99.90;;;;;;4192315;28;20025;-84
2021/08/02 02:53:25;;;;;;;8.27;4.00;;;13.50;99.90;;;;;;4194494;28;20115;-84
2021/08/02 02:55:29;;;;;;;8.23;3.67;;;13.40;99.90;;;;;;4191521;28;20032;-83
2021/08/02 02:57:29;;;;;;;5.85;3.83;;;13.40;99.90;;;;;;4196015;28;20480;-83
2021/08/02 02:59:40;;;;;;;8.40;4.47;;;13.40;99.90;;;;;;4192713;28;20144;-83
2021/08/02 03:01:45;;;;;;;10.95;4.28;;;13.40;99.90;;;;;;4192058;28;20089;-84
2021/08/02 03:03:50;;;;;;;9.35;4.40;;;13.50;99.90;;;;;;4195750;28;20476;-84
2021/08/02 03:06:07;;;;;;;7.90;4.50;;;13.50;99.90;;;;;;4194128;28;20113;-84
2021/08/02 03:08:09;;;;;;;9.15;4.40;;;13.50;99.90;;;;;;4193114;28;20025;-84
2021/08/02 03:10:22;;;;;;;9.77;3.60;;;13.60;99.90;;;;;;4195504;28;20028;-83
2021/08/02 03:12:31;;;;;;;6.72;4.15;;;13.60;99.90;;;;;;4194706;28;20533;-85
2021/08/02 03:14:44;;;;;;;15.07;4.47;;;13.60;99.90;;;;;;4189005;28;20065;-84
2021/08/02 03:16:45;;;;;;;7.63;3.53;;;13.60;99.90;;;;;;4193887;28;20036;-83
2021/08/02 03:18:46;;;;;;;6.15;3.50;;;13.70;99.90;;;;;;4192326;28;20038;-83
2021/08/02 03:20:47;;;;;;;8.85;3.70;;;13.70;99.90;;;;;;4191985;28;20111;-84
2021/08/02 03:23:18;;;;;;;5.80;4.35;;;13.60;99.90;;;;;;4192754;28;21815;-83
2021/08/02 03:25:27;;;;;;;7.55;4.00;;;13.60;99.90;;;;;;4194473;28;20033;-83
2021/08/02 03:27:54;;;;;;;10.70;4.25;;;13.50;99.90;;;;;;4191556;28;20040;-84
2021/08/02 03:30:06;;;;;;;6.82;4.38;;;13.50;99.90;;;;;;4185421;28;20044;-84
2021/08/02 03:32:16;;;;;;;11.57;3.90;;;13.40;99.90;;;;;;4201064;28;20039;-83
2021/08/02 03:34:26;;;;;;;7.35;4.47;;;13.30;99.90;;;;;;4195929;28;20435;-83
2021/08/02 03:36:27;;;;;;;8.52;4.35;;;13.30;99.90;;;;;;4194208;28;20123;-83
2021/08/02 03:38:40;;;;;;;7.78;5.22;;;13.20;99.90;;;;;;4191598;28;20527;-84
2021/08/02 03:40:48;;;;;;;8.07;4.05;;;13.20;99.90;;;;;;4193389;28;20032;-84
2021/08/02 03:42:50;;;;;;;8.30;4.25;;;13.10;99.90;;;;;;4208977;28;20111;-84
2021/08/02 03:44:52;;;;;;;8.18;4.47;;;13.10;99.90;;;;;;4194122;28;20064;-84
2021/08/02 03:47:05;;;;;;;7.63;3.92;;;13.20;99.90;;;;;;4190985;28;20040;-84
2021/08/02 03:49:09;;;;;;;6.45;4.03;;;13.10;99.90;;;;;;4188859;28;20498;-83
2021/08/02 03:51:10;;;;;;;9.20;4.20;;;13.10;99.90;;;;;;4193403;28;20052;-84
2021/08/02 03:53:11;;;;;;;8.15;4.32;;;13.00;99.90;;;;;;4194194;28;20170;-84
2021/08/02 03:55:14;;;;;;;5.72;4.45;;;13.10;99.90;;;;;;4193449;28;20052;-83
2021/08/02 03:57:16;;;;;;;11.18;4.38;;;13.10;99.90;;;;;;4194555;28;20039;-83
2021/08/02 03:59:17;;;;;;;10.70;4.63;;;13.10;99.90;;;;;;4193849;28;20434;-83
2021/08/02 04:01:26;;;;;;;7.20;4.68;;;13.10;99.90;;;;;;4193007;28;20025;-83
2021/08/02 04:03:26;;;;;;;10.15;4.65;;;13.00;99.90;;;;;;4197089;28;20032;-83
2021/08/02 04:05:28;;;;;;;7.78;4.07;;;12.80;99.90;;;;;;4192431;28;20372;-84
2021/08/02 04:07:29;;;;;;;11.70;5.10;;;12.70;99.90;;;;;;4193686;28;20419;-82
2021/08/02 04:09:30;;;;;;;10.63;4.70;;;12.60;99.90;;;;;;4194488;28;20029;-82
2021/08/02 04:11:34;;;;;;;8.65;4.68;;;12.50;99.90;;;;;;4197592;28;20032;-83
2021/08/02 04:13:39;;;;;;;10.23;5.13;;;12.40;99.90;;;;;;4191241;28;20134;-83
2021/08/02 04:15:48;;;;;;;8.13;4.80;;;12.40;99.90;;;;;;4195477;28;20041;-83
2021/08/02 04:17:50;;;;;;;11.70;4.65;;;12.30;99.90;;;;;;4196678;28;20036;-83
2021/08/02 04:20:00;;;;;;;10.70;5.75;;;12.30;99.90;;;;;;4195261;28;20028;-83
2021/08/02 04:22:01;;;;;;;9.23;5.43;;;12.30;99.90;;;;;;4193336;28;20047;-83
2021/08/02 04:24:02;;;;;;;10.18;5.45;;;12.20;99.90;;;;;;4203271;28;20032;-83
2021/08/02 04:26:05;;;;;;;10.00;4.90;;;12.20;99.90;;;;;;4196513;28;20153;-83
2021/08/02 04:28:17;;;;;;;9.98;6.20;;;12.20;99.90;;;;;;4212759;28;20055;-83
2021/08/02 04:30:18;;;;;;;9.55;5.95;;;12.20;99.90;;;;;;4214382;28;20116;-83
2021/08/02 04:32:18;;;;;;;8.02;5.32;;;12.20;99.90;;;;;;4215006;28;20028;-82
2021/08/02 04:34:21;;;;;;;6.93;5.10;;;12.20;99.90;;;;;;4213505;28;20031;-82
2021/08/02 04:36:24;;;;;;;8.90;5.25;;;12.20;99.90;;;;;;4194620;28;20039;-83
2021/08/02 04:38:33;;;;;;;8.63;5.78;;;12.20;99.90;;;;;;4194180;28;20094;-83
2021/08/02 04:40:35;;;;;;;12.43;6.72;;;12.20;99.90;;;;;;4212601;28;20060;-83
2021/08/02 04:42:43;;;;;;;14.57;6.25;;;12.20;99.90;;;;;;4195550;28;20084;-82
2021/08/02 04:44:43;;;;;;;9.95;5.22;;;12.30;99.90;;;;;;4213800;28;20042;-82
2021/08/02 04:46:44;;;;;;;16.88;5.22;;;12.30;99.90;;;;;;4197401;28;20063;-82
2021/08/02 04:48:51;;;;;;;9.90;5.50;;;12.30;99.90;;;;;;4197426;28;20060;-83
2021/08/02 04:51:00;;;;;;;16.73;5.10;;;12.30;99.90;;;;;;4210526;28;20090;-83
2021/08/02 04:53:01;;;;;;;8.20;5.03;;;12.40;99.90;;;;;;4193276;28;20028;-83
2021/08/02 04:55:02;;;;;;;7.38;4.82;;;12.50;99.90;;;;;;4214288;28;20071;-83
2021/08/02 04:57:04;;;;;;;10.32;5.68;;;12.60;99.90;;;;;;4197397;28;20052;-83
2021/08/02 04:59:07;;;;;;;8.48;5.28;;;12.70;99.90;;;;;;4193915;28;20135;-83
2021/08/02 05:01:08;;;;;;;9.25;5.88;;;12.70;99.90;;;;;;4198685;28;20023;-82
2021/08/02 05:03:10;;;;;;;8.38;5.05;;;12.70;99.90;;;;;;4214984;28;20024;-83
2021/08/02 05:05:23;;;;;;;10.50;5.03;;;12.70;99.90;;;;;;4215810;28;20048;-83
2021/08/02 05:07:25;;;;;;;11.02;4.72;;;12.70;99.90;;;;;;4213450;28;20028;-83
2021/08/02 05:09:33;;;;;;;10.40;5.25;;;12.70;99.90;;;;;;4199966;28;20029;-83
2021/08/02 05:11:40;;;;;;;8.80;4.95;;;12.80;99.90;;;;;;4194053;28;20058;-83
2021/08/02 05:13:56;;;;;;;11.77;4.50;;;12.80;99.90;;;;;;4196674;28;20178;-83
2021/08/02 05:15:58;;;;;;;11.00;6.13;;;12.90;99.90;;;;;;4187975;28;20047;-83
2021/08/02 05:18:04;;;;;;;6.93;4.70;;;13.00;99.90;;;;;;4192556;28;20029;-83
2021/08/02 05:20:08;;;;;;;9.13;4.10;;;13.10;99.90;;;;;;4193501;28;20127;-84
2021/08/02 05:22:08;;;;;;;6.05;5.07;;;13.20;99.90;;;;;;4191845;28;20032;-83
2021/08/02 05:24:27;;;;;;;7.80;4.13;;;13.30;99.90;;;;;;4190919;28;20073;-83
2021/08/02 05:26:47;;;;;;;6.78;4.25;;;13.40;99.90;;;;;;4204577;28;20058;-83
2021/08/02 05:29:03;;;;;;;11.38;4.28;;;13.50;99.90;;;;;;4194442;28;20059;-82
2021/08/02 05:31:04;;;;;;;8.02;3.75;;;13.70;99.90;;;;;;4207763;28;20021;-83
2021/08/02 05:33:04;;;;;;;6.25;3.60;;;13.90;99.90;;;;;;4194865;28;20086;-83
2021/08/02 05:35:06;;;;;;;7.20;3.40;;;14.10;99.90;;;;;;4192936;28;20102;-83
2021/08/02 05:37:12;;;;;;;7.70;3.72;;;14.30;99.90;;;;;;4212182;28;20783;-83
2021/08/02 05:39:15;;;;;;;7.45;3.65;;;14.40;99.90;;;;;;4210821;28;20430;-84
2021/08/02 05:41:15;;;;;;;7.85;3.85;;;14.50;99.90;;;;;;4195444;28;20454;-83
2021/08/02 05:43:16;;;;;;;8.95;3.10;;;14.70;99.90;;;;;;4212898;28;20043;-84
2021/08/02 05:45:16;;;;;;;7.57;3.00;;;14.80;99.90;;;;;;4220620;28;20483;-84
2021/08/02 05:47:23;;;;;;;9.45;3.05;;;14.90;99.90;;;;;;4209909;28;20023;-84
2021/08/02 05:49:32;;;;;;;8.73;2.80;;;14.90;99.90;;;;;;4195344;28;20524;-83
2021/08/02 05:51:34;;;;;;;7.15;3.05;;;15.00;99.90;;;;;;4189909;28;20033;-84
2021/08/02 05:54:03;;;;;;;10.40;3.08;;;15.00;99.90;;;;;;4211924;28;20028;-83
2021/08/02 05:56:12;;;;;;;5.80;3.00;;;15.00;99.90;;;;;;4194018;28;20067;-83
2021/08/02 05:58:21;;;;;;;5.88;3.42;;;15.10;99.90;;;;;;4194266;28;20028;-84
2021/08/02 06:00:33;;;;;;;5.00;2.88;;;15.00;99.90;;;;;;4212720;28;20070;-83
2021/08/02 06:02:34;;;;;;;6.85;2.88;;;15.00;99.90;;;;;;4207025;28;20046;-83
2021/08/02 06:04:36;;;;;;;9.00;3.00;;;15.10;99.90;;;;;;4184993;28;20067;-84
2021/08/02 06:06:44;;;;;;;5.40;2.97;;;15.00;99.90;;;;;;4194167;28;20108;-83
2021/08/02 06:08:45;;;;;;;4.63;3.05;;;14.90;99.90;;;;;;4211059;28;20028;-83
2021/08/02 06:10:48;;;;;;;7.30;3.28;;;14.80;99.90;;;;;;4194840;28;20431;-84
2021/08/02 06:12:49;;;;;;;6.53;3.83;;;14.80;99.90;;;;;;4213698;28;20028;-84
2021/08/02 06:14:50;;;;;;;10.45;3.33;;;14.80;99.90;;;;;;4211063;28;20036;-83
2021/08/02 06:16:51;;;;;;;8.35;3.30;;;14.80;99.90;;;;;;4214116;28;20039;-82
2021/08/02 06:18:51;;;;;;;7.20;3.08;;;14.90;99.90;;;;;;4191692;28;20411;-82
2021/08/02 06:20:52;;;;;;;12.38;3.22;;;15.00;99.90;;;;;;4203642;28;20081;-82
2021/08/02 06:22:53;;;;;;;9.48;3.67;;;15.00;99.90;;;;;;4209655;28;20440;-82
2021/08/02 06:24:54;;;;;;;4.65;3.20;;;14.90;99.90;;;;;;4193202;28;20036;-82
2021/08/02 06:27:00;;;;;;;8.15;3.28;;;14.90;99.90;;;;;;4207342;28;20024;-82
2021/08/02 06:29:01;;;;;;;6.85;3.42;;;15.10;99.90;;;;;;4194899;28;20031;-81
2021/08/02 06:31:04;;;;;;;7.88;3.20;;;15.10;99.90;;;;;;4213282;28;20028;-85
2021/08/02 06:33:05;;;;;;;7.57;3.13;;;15.10;99.90;;;;;;4213886;28;20047;-84
2021/08/02 06:35:06;;;;;;;5.68;3.00;;;15.20;99.90;;;;;;4194975;28;20032;-84
2021/08/02 06:37:16;;;;;;;8.55;2.80;;;15.20;99.90;;;;;;4212180;28;20024;-83
2021/08/02 06:39:17;;;;;;;7.35;3.30;;;15.30;99.90;;;;;;4196347;28;20028;-82
2021/08/02 06:41:17;;;;;;;8.55;3.35;;;15.40;99.90;;;;;;4212713;28;20601;-82
2021/08/02 06:43:20;;;;;;;6.82;3.33;;;15.40;99.90;;;;;;4194489;28;20036;-80
2021/08/02 06:45:21;;;;;;;5.63;3.30;;;15.60;99.90;;;;;;4188425;28;20044;-80
2021/08/02 06:47:21;;;;;;;9.80;3.50;;;15.60;99.90;;;;;;4212395;28;20020;-82
2021/08/02 06:49:22;;;;;;;10.63;3.30;;;15.60;99.90;;;;;;4209438;28;20032;-80
2021/08/02 06:51:23;;;;;;;8.93;2.92;;;15.70;99.90;;;;;;4193818;28;20466;-80
2021/08/02 06:53:24;;;;;;;10.68;3.00;;;15.70;99.90;;;;;;4210675;28;20036;-79
2021/08/02 06:55:25;;;;;;;6.63;2.88;;;15.80;99.90;;;;;;4191879;28;20473;-78
2021/08/02 06:57:25;;;;;;;8.32;3.53;;;15.80;99.90;;;;;;4191779;28;20142;-78
2021/08/02 06:59:26;;;;;;;6.95;2.65;;;15.90;99.90;;;;;;4205870;28;20029;-78
2021/08/02 07:01:27;;;;;;;9.43;3.17;;;16.00;99.90;;;;;;4191197;28;20040;-79
2021/08/02 07:03:28;;;;;;;6.10;3.03;;;16.00;99.90;;;;;;4210090;28;20085;-78
2021/08/02 07:05:30;;;;;;;4.55;2.80;;;16.10;99.90;;;;;;4207611;28;20394;-78
2021/08/02 07:07:30;;;;;;;5.68;2.63;;;16.20;99.90;;;;;;4211857;28;20028;-78
2021/08/02 07:09:31;;;;;;;6.70;2.88;;;16.20;99.90;;;;;;4210495;28;20043;-79
2021/08/02 07:11:32;;;;;;;5.32;2.88;;;16.20;99.90;;;;;;4212053;28;20024;-80
2021/08/02 07:13:34;;;;;;;8.50;3.67;;;16.20;99.90;;;;;;4193371;28;20052;-80
2021/08/02 07:15:35;;;;;;;10.45;3.30;;;16.20;99.90;;;;;;4205734;28;20115;-79
2021/08/02 07:17:35;;;;;;;11.65;3.78;;;16.30;99.90;;;;;;4192225;28;20388;-79
2021/08/02 07:19:36;;;;;;;5.20;3.00;;;16.30;99.90;;;;;;4191066;28;20033;-76
2021/08/02 07:21:37;;;;;;;7.50;3.78;;;16.50;99.90;;;;;;4218475;28;20050;-77
2021/08/02 07:23:38;;;;;;;6.03;3.30;;;16.50;99.90;;;;;;4196416;28;20418;-78
2021/08/02 07:25:38;;;;;;;11.63;4.75;;;16.50;99.90;;;;;;4210995;28;20040;-78
2021/08/02 07:27:41;;;;;;;6.28;2.75;;;16.50;99.90;;;;;;4207393;28;20056;-78
2021/08/02 07:29:42;;;;;;;4.35;2.55;;;16.50;99.90;;;;;;4191070;28;20044;-78
2021/08/02 07:31:44;;;;;;;7.13;2.60;;;16.60;99.90;;;;;;4211451;28;20383;-78
2021/08/02 07:33:45;;;;;;;4.07;2.20;;;16.70;99.90;;;;;;4209019;28;20495;-77
2021/08/02 07:35:47;;;;;;;6.97;2.72;;;16.90;99.90;;;;;;4208855;28;20061;-78
2021/08/02 07:37:47;;;;;;;6.88;3.38;;;17.10;99.90;;;;;;4192467;28;20052;-78
2021/08/02 07:39:48;;;;;;;5.80;3.03;;;17.20;99.90;;;;;;4189594;28;20043;-78
2021/08/02 07:41:49;;;;;;;8.70;3.13;;;17.30;99.90;;;;;;4186527;28;20037;-80
2021/08/02 07:43:49;;;;;;;9.30;2.88;;;17.40;99.90;;;;;;4208797;28;20101;-78
2021/08/02 07:45:50;;;;;;;5.68;3.58;;;17.60;99.90;;;;;;4190236;28;20464;-78
2021/08/02 07:47:51;;;;;;;6.68;2.40;;;17.80;99.90;;;;;;4194356;28;20067;-78
2021/08/02 07:49:52;;;;;;;4.97;2.58;;;17.80;99.90;;;;;;4198270;28;20115;-78
2021/08/02 07:51:52;;;;;;;8.50;2.78;;;17.70;99.90;;;;;;4210655;28;20032;-79
2021/08/02 07:53:55;;;;;;;6.65;2.60;;;17.80;99.90;;;;;;4195327;28;20084;-78
2021/08/02 07:55:56;;;;;;;2.97;2.00;;;18.00;99.90;;;;;;4213909;28;20036;-78
2021/08/02 07:57:56;;;;;;;4.43;2.38;;;18.30;99.90;;;;;;4193143;28;20434;-77
2021/08/02 08:00:00;;;;;;;7.63;2.55;;;18.70;99.90;;;;;;4195581;28;20032;-78
2021/08/02 08:02:00;;;;;;;4.68;2.67;;;18.90;99.90;;;;;;4192183;28;20040;-78
2021/08/02 08:04:01;;;;;;;6.95;2.13;;;18.90;99.90;;;;;;4197631;28;20120;-79
2021/08/02 08:06:02;;;;;;;6.50;2.30;;;18.70;99.90;;;;;;4213655;28;20479;-78
2021/08/02 08:08:03;;;;;;;8.50;2.35;;;18.50;99.90;;;;;;4196906;28;20107;-79
2021/08/02 08:10:04;;;;;;;4.63;2.40;;;18.30;99.90;;;;;;4210107;28;20135;-79
2021/08/02 08:12:04;;;;;;;6.18;2.67;;;18.10;99.90;;;;;;4206904;28;20040;-79
2021/08/02 08:14:06;;;;;;;5.93;2.63;;;18.00;99.90;;;;;;4213978;28;20044;-79
2021/08/02 08:16:07;;;;;;;6.03;2.08;;;18.00;99.90;;;;;;4212319;28;20040;-78
2021/08/02 08:18:07;;;;;;;6.13;2.08;;;17.90;99.90;;;;;;4210275;28;20035;-78
2021/08/02 08:20:13;;;;;;;7.18;2.60;;;18.10;99.90;;;;;;4214830;28;20028;-79
2021/08/02 08:22:14;;;;;;;4.40;2.42;;;18.50;99.90;;;;;;4208503;28;20043;-80
2021/08/02 08:24:15;;;;;;;16.50;10.00;;;18.90;99.90;;;;;;4213973;28;20508;-81
2021/08/02 08:26:19;;;;;;;6.18;3.28;;;19.10;99.90;;;;;;4193801;28;20120;-81
2021/08/02 08:28:30;;;;;;;4.15;2.50;;;19.20;99.90;;;;;;4191313;28;20466;-84
2021/08/02 08:30:31;;;;;;;5.47;2.38;;;19.30;99.90;;;;;;4207168;28;20036;-82
2021/08/02 08:32:31;;;;;;;4.32;2.55;;;19.30;99.90;;;;;;4214319;28;20139;-81
2021/08/02 08:34:32;;;;;;;3.67;2.30;;;19.20;99.90;;;;;;4194335;28;20036;-80
2021/08/02 08:36:33;;;;;;;5.07;2.00;;;19.20;99.90;;;;;;4213479;28;20461;-81
2021/08/02 08:38:34;;;;;;;5.90;2.42;;;19.30;99.90;;;;;;4194749;28;20074;-81
2021/08/02 08:40:37;;;;;;;8.45;2.40;;;19.60;99.90;;;;;;4190257;28;20500;-82
2021/08/02 08:42:50;;;;;;;3.80;2.08;;;19.80;99.90;;;;;;4194543;28;20044;-82
2021/08/02 08:44:51;;;;;;;5.43;2.35;;;19.70;99.90;;;;;;4195759;28;20129;-81
2021/08/02 08:46:51;;;;;;;5.25;2.30;;;19.70;99.90;;;;;;4213568;28;20473;-80
2021/08/02 08:48:52;;;;;;;4.45;2.50;;;19.60;99.90;;;;;;4211236;28;20028;-80
2021/08/02 08:50:54;;;;;;;6.10;2.50;;;19.60;99.90;;;;;;4194656;28;20438;-79
2021/08/02 08:52:56;;;;;;;7.07;2.60;;;19.50;99.90;;;;;;4194855;28;20031;-79
2021/08/02 08:54:57;;;;;;;4.78;2.50;;;19.50;99.90;;;;;;4191559;28;20033;-80
2021/08/02 08:56:58;;;;;;;9.27;4.40;;;19.40;99.90;;;;;;4191568;28;20040;-81
2021/08/02 08:58:59;;;;;;;6.45;4.05;;;19.30;99.90;;;;;;4213829;28;20101;-81
2021/08/02 09:01:04;;;;;;;9.18;3.22;;;19.20;99.90;;;;;;4212772;28;20036;-79
2021/08/02 09:03:13;;;;;;;8.95;3.47;;;19.20;99.90;;;;;;4191201;28;20021;-85
2021/08/02 09:05:20;;;;;;;5.70;2.75;;;19.20;99.90;;;;;;4188350;28;20758;-83
2021/08/02 09:07:38;;;;;;;3.90;2.42;;;19.20;99.90;;;;;;4189652;28;20059;-81
2021/08/02 09:09:40;;;;;;;5.60;2.25;;;19.30;99.90;;;;;;4193997;28;20032;-82
2021/08/02 09:11:41;;;;;;;5.78;2.88;;;19.50;99.90;;;;;;4212733;28;20024;-80
2021/08/02 09:13:43;;;;;;;5.40;2.17;;;19.60;99.90;;;;;;4210248;28;20562;-80
2021/08/02 09:15:45;;;;;;;11.15;2.42;;;19.60;99.90;;;;;;4213098;28;20020;-81
2021/08/02 09:17:51;;;;;;;5.45;3.30;;;19.70;99.90;;;;;;4212338;28;20456;-83
2021/08/02 09:19:51;;;;;;;5.20;2.78;;;20.80;99.90;;;;;;4205227;28;20024;-82
2021/08/02 09:21:54;;;;;;;7.32;4.32;;;20.10;99.90;;;;;;4194941;28;20025;-86
2021/08/02 09:23:57;;;;;;;14.85;11.75;;;20.10;99.90;;;;;;4194742;28;20434;-85
2021/08/02 09:26:00;;;;;;;4.20;2.10;;;20.50;99.90;;;;;;4209940;28;20032;-83
2021/08/02 09:28:12;;;;;;;6.32;2.50;;;19.90;99.90;;;;;;4191382;28;20075;-83
2021/08/02 09:30:24;;;;;;;4.50;2.20;;;20.30;99.90;;;;;;4192255;28;20040;-82
2021/08/02 09:32:24;;;;;;;6.65;2.42;;;20.10;99.90;;;;;;4192248;28;20063;-82
2021/08/02 09:34:26;;;;;;;4.82;3.03;;;20.00;99.90;;;;;;4192922;28;20726;-84
2021/08/02 09:36:39;;;;;;;5.75;2.55;;;19.30;99.90;;;;;;4198472;28;20036;-84
2021/08/02 09:38:53;;;;;;;4.93;2.65;;;19.70;99.90;;;;;;4198301;28;20040;-85
2021/08/02 09:40:57;;;;;;;5.00;2.70;;;19.50;99.90;;;;;;4193304;28;20040;-84
2021/08/02 09:42:58;;;;;;;8.07;2.35;;;19.60;99.90;;;;;;4195543;28;20074;-86
2021/08/02 09:45:00;;;;;;;8.82;2.90;;;19.60;99.90;;;;;;4194488;28;20066;-84
2021/08/02 09:47:11;;;;;;;6.88;2.83;;;19.10;99.90;;;;;;4193694;28;20039;-83
2021/08/02 09:49:14;;;;;;;4.35;2.45;;;19.30;99.90;;;;;;4189228;28;20031;-84
2021/08/02 09:51:17;;;;;;;4.20;2.40;;;19.30;99.90;;;;;;4194390;28;20176;-87
2021/08/02 09:53:20;;;;;;;7.55;2.65;;;19.30;99.90;;;;;;4193718;28;20049;-84
2021/08/02 09:55:22;;;;;;;7.50;2.47;;;19.30;99.90;;;;;;4197494;28;20082;-86
2021/08/02 09:57:23;;;;;;;9.27;3.33;;;19.40;99.90;;;;;;4196119;28;20502;-84
2021/08/02 09:59:25;;;;;;;6.75;2.30;;;19.40;99.90;;;;;;4187534;28;20032;-84
2021/08/02 10:01:26;;;;;;;7.05;4.03;;;19.60;99.90;;;;;;4193956;28;20033;-84
2021/08/02 10:03:29;;;;;;;5.15;2.70;;;19.70;99.90;;;;;;4190110;28;20071;-82
2021/08/02 10:05:30;;;;;;;4.05;2.30;;;20.00;99.90;;;;;;4187603;28;20041;-83
2021/08/02 10:07:31;;;;;;;5.43;2.78;;;20.10;99.90;;;;;;4198099;28;20036;-84
2021/08/02 10:09:33;;;;;;;6.80;3.20;;;20.30;99.90;;;;;;4196169;28;20032;-84
2021/08/02 10:11:41;;;;;;;5.50;2.78;;;20.60;99.90;;;;;;4190318;28;20059;-85
2021/08/02 10:13:43;;;;;;;7.15;3.30;;;20.70;99.90;;;;;;4192936;28;20040;-84
2021/08/02 10:15:51;;;;;;;7.43;3.03;;;20.90;99.90;;;;;;4193601;28;20051;-84
2021/08/02 10:17:54;;;;;;;5.68;2.47;;;21.00;99.90;;;;;;4191903;28;20040;-85
2021/08/02 10:19:56;;;;;;;5.80;2.75;;;21.20;99.90;;;;;;4194291;28;20028;-84
2021/08/02 10:22:00;;;;;;;5.03;2.20;;;21.30;99.90;;;;;;4194390;28;20051;-85
2021/08/02 10:24:14;;;;;;;7.28;2.35;;;21.70;99.90;;;;;;4206885;28;20040;-84
2021/08/02 10:26:28;;;;;;;5.88;2.42;;;21.80;99.90;;;;;;4206802;28;20051;-82
2021/08/02 10:28:29;;;;;;;2.92;2.45;;;22.10;99.90;;;;;;4204662;28;20183;-82
2021/08/02 10:30:30;;;;;;;5.57;2.40;;;22.70;99.90;;;;;;4211715;28;20099;-81
2021/08/02 10:32:35;;;;;;;7.22;3.00;;;22.60;99.90;;;;;;4194302;28;20392;-82
2021/08/02 10:34:50;;;;;;;5.88;2.00;;;22.90;99.90;;;;;;4188138;28;20817;-82
2021/08/02 10:37:05;;;;;;;4.65;2.20;;;23.20;99.90;;;;;;4204980;28;20085;-83
2021/08/02 10:39:19;;;;;;;9.35;2.20;;;22.80;99.90;;;;;;4210985;28;20040;-83
2021/08/02 10:41:24;;;;;;;3.95;2.25;;;22.90;99.90;;;;;;4193985;28;20076;-84
2021/08/02 10:43:31;;;;;;;3.70;2.30;;;23.10;99.90;;;;;;4191900;28;20028;-83
2021/08/02 10:45:33;;;;;;;3.90;2.08;;;23.20;99.90;;;;;;4209055;28;20043;-83
2021/08/02 10:47:42;;;;;;;6.95;2.70;;;23.80;99.90;;;;;;4190307;28;20033;-82
2021/08/02 10:49:53;;;;;;;8.73;2.70;;;23.90;99.90;;;;;;4179878;28;20471;-82
2021/08/02 10:51:55;;;;;;;6.07;3.03;;;23.10;99.90;;;;;;4208801;28;20028;-83
2021/08/02 10:54:03;;;;;;;6.93;2.50;;;24.10;99.90;;;;;;4211736;28;20047;-81